sensor_id;sensor_type;location;lat;lon;timestamp;P1;durP1;ratioP1;P2;durP2;ratioP2
5890;SDS011;2971;52.420;7.080;2023-05-07T00:01:04;16.50;;;14.80;;
5890;SDS011;2971;52.420;7.080;2023-05-07T00:03:31;16.17;;;14.53;;
5890;SDS011;2971;52.420;7.080;2023-05-07T00:05:57;16.83;;;15.13;;
5890;SDS011;2971;52.420;7.080;2023-05-07T00:08:23;17.60;;;15.90;;
5890;SDS011;2971;52.420;7.080;2023-05-07T00:10:48;18.53;;;16.63;;
5890;SDS011;2971;52.420;7.080;2023-05-07T00:13:14;17.60;;;15.83;;
5890;SDS011;2971;52.420;7.080;2023-05-07T00:15:39;18.57;;;16.43;;
5890;SDS011;2971;52.420;7.080;2023-05-07T00:18:04;18.73;;;16.87;;
5890;SDS011;2971;52.420;7.080;2023-05-07T00:20:30;20.07;;;18.07;;
5890;SDS011;2971;52.420;7.080;2023-05-07T00:22:55;18.63;;;16.83;;
5890;SDS011;2971;52.420;7.080;2023-05-07T00:25:21;19.93;;;17.97;;
5890;SDS011;2971;52.420;7.080;2023-05-07T00:27:46;20.37;;;18.47;;
5890;SDS011;2971;52.420;7.080;2023-05-07T00:30:12;20.33;;;18.43;;
5890;SDS011;2971;52.420;7.080;2023-05-07T00:32:38;22.73;;;19.33;;
5890;SDS011;2971;52.420;7.080;2023-05-07T00:35:04;21.57;;;19.47;;
5890;SDS011;2971;52.420;7.080;2023-05-07T00:37:30;22.83;;;20.43;;
5890;SDS011;2971;52.420;7.080;2023-05-07T00:39:56;22.00;;;19.60;;
5890;SDS011;2971;52.420;7.080;2023-05-07T00:42:21;21.37;;;19.27;;
5890;SDS011;2971;52.420;7.080;2023-05-07T00:44:47;24.57;;;22.27;;
5890;SDS011;2971;52.420;7.080;2023-05-07T00:47:12;23.27;;;21.17;;
5890;SDS011;2971;52.420;7.080;2023-05-07T00:49:42;23.77;;;21.27;;
5890;SDS011;2971;52.420;7.080;2023-05-07T00:52:09;24.43;;;21.97;;
5890;SDS011;2971;52.420;7.080;2023-05-07T00:54:37;25.20;;;22.73;;
5890;SDS011;2971;52.420;7.080;2023-05-07T00:57:02;24.67;;;22.07;;
5890;SDS011;2971;52.420;7.080;2023-05-07T00:59:29;25.60;;;23.00;;
5890;SDS011;2971;52.420;7.080;2023-05-07T01:01:55;26.03;;;23.43;;
5890;SDS011;2971;52.420;7.080;2023-05-07T01:04:21;26.30;;;23.70;;
5890;SDS011;2971;52.420;7.080;2023-05-07T01:06:46;26.50;;;23.90;;
5890;SDS011;2971;52.420;7.080;2023-05-07T01:09:12;26.83;;;24.13;;
5890;SDS011;2971;52.420;7.080;2023-05-07T01:11:38;26.67;;;24.17;;
5890;SDS011;2971;52.420;7.080;2023-05-07T01:14:04;27.70;;;24.37;;
5890;SDS011;2971;52.420;7.080;2023-05-07T01:16:30;28.23;;;25.27;;
5890;SDS011;2971;52.420;7.080;2023-05-07T01:18:56;26.33;;;23.83;;
5890;SDS011;2971;52.420;7.080;2023-05-07T01:21:24;27.60;;;24.67;;
5890;SDS011;2971;52.420;7.080;2023-05-07T01:23:51;26.93;;;24.33;;
5890;SDS011;2971;52.420;7.080;2023-05-07T01:26:17;28.30;;;25.40;;
5890;SDS011;2971;52.420;7.080;2023-05-07T01:28:44;28.37;;;25.67;;
5890;SDS011;2971;52.420;7.080;2023-05-07T01:31:10;28.17;;;25.23;;
5890;SDS011;2971;52.420;7.080;2023-05-07T01:33:37;27.77;;;25.03;;
5890;SDS011;2971;52.420;7.080;2023-05-07T01:36:03;27.93;;;25.23;;
5890;SDS011;2971;52.420;7.080;2023-05-07T01:38:31;29.10;;;26.30;;
5890;SDS011;2971;52.420;7.080;2023-05-07T01:40:57;29.07;;;26.20;;
5890;SDS011;2971;52.420;7.080;2023-05-07T01:43:23;28.97;;;26.13;;
5890;SDS011;2971;52.420;7.080;2023-05-07T01:45:48;28.87;;;26.07;;
5890;SDS011;2971;52.420;7.080;2023-05-07T01:48:14;28.13;;;25.43;;
5890;SDS011;2971;52.420;7.080;2023-05-07T01:50:40;27.63;;;24.83;;
5890;SDS011;2971;52.420;7.080;2023-05-07T01:53:07;29.00;;;26.20;;
5890;SDS011;2971;52.420;7.080;2023-05-07T01:55:32;29.70;;;26.77;;
5890;SDS011;2971;52.420;7.080;2023-05-07T01:57:57;27.50;;;24.90;;
5890;SDS011;2971;52.420;7.080;2023-05-07T02:00:23;27.80;;;25.10;;
5890;SDS011;2971;52.420;7.080;2023-05-07T02:02:48;27.60;;;25.03;;
5890;SDS011;2971;52.420;7.080;2023-05-07T02:05:15;29.63;;;26.70;;
5890;SDS011;2971;52.420;7.080;2023-05-07T02:07:42;28.60;;;25.80;;
5890;SDS011;2971;52.420;7.080;2023-05-07T02:10:07;28.03;;;25.23;;
5890;SDS011;2971;52.420;7.080;2023-05-07T02:12:33;29.27;;;26.37;;
5890;SDS011;2971;52.420;7.080;2023-05-07T02:14:58;27.43;;;24.83;;
5890;SDS011;2971;52.420;7.080;2023-05-07T02:17:24;29.17;;;26.20;;
5890;SDS011;2971;52.420;7.080;2023-05-07T02:19:50;29.33;;;26.17;;
5890;SDS011;2971;52.420;7.080;2023-05-07T02:22:16;31.17;;;27.97;;
5890;SDS011;2971;52.420;7.080;2023-05-07T02:24:41;30.27;;;27.30;;
5890;SDS011;2971;52.420;7.080;2023-05-07T02:27:07;32.57;;;29.10;;
5890;SDS011;2971;52.420;7.080;2023-05-07T02:29:32;31.60;;;28.50;;
5890;SDS011;2971;52.420;7.080;2023-05-07T02:31:58;32.17;;;28.83;;
5890;SDS011;2971;52.420;7.080;2023-05-07T02:34:23;30.50;;;27.43;;
5890;SDS011;2971;52.420;7.080;2023-05-07T02:36:49;31.20;;;28.10;;
5890;SDS011;2971;52.420;7.080;2023-05-07T02:39:14;32.83;;;29.37;;
5890;SDS011;2971;52.420;7.080;2023-05-07T02:41:40;31.87;;;28.63;;
5890;SDS011;2971;52.420;7.080;2023-05-07T02:44:06;31.73;;;28.63;;
5890;SDS011;2971;52.420;7.080;2023-05-07T02:46:31;32.90;;;29.40;;
5890;SDS011;2971;52.420;7.080;2023-05-07T02:48:57;32.87;;;29.50;;
5890;SDS011;2971;52.420;7.080;2023-05-07T02:51:22;34.27;;;30.67;;
5890;SDS011;2971;52.420;7.080;2023-05-07T02:53:48;33.80;;;30.20;;
5890;SDS011;2971;52.420;7.080;2023-05-07T02:56:14;32.80;;;29.70;;
5890;SDS011;2971;52.420;7.080;2023-05-07T02:58:39;34.97;;;31.47;;
5890;SDS011;2971;52.420;7.080;2023-05-07T03:01:05;35.07;;;31.37;;
5890;SDS011;2971;52.420;7.080;2023-05-07T03:03:31;34.57;;;31.00;;
5890;SDS011;2971;52.420;7.080;2023-05-07T03:05:57;35.10;;;31.63;;
5890;SDS011;2971;52.420;7.080;2023-05-07T03:08:22;35.50;;;31.80;;
5890;SDS011;2971;52.420;7.080;2023-05-07T03:10:48;36.20;;;32.33;;
5890;SDS011;2971;52.420;7.080;2023-05-07T03:13:14;36.27;;;32.50;;
5890;SDS011;2971;52.420;7.080;2023-05-07T03:15:39;36.37;;;32.53;;
5890;SDS011;2971;52.420;7.080;2023-05-07T03:18:05;37.73;;;33.87;;
5890;SDS011;2971;52.420;7.080;2023-05-07T03:20:30;34.93;;;31.53;;
5890;SDS011;2971;52.420;7.080;2023-05-07T03:22:56;36.67;;;32.87;;
5890;SDS011;2971;52.420;7.080;2023-05-07T03:25:21;37.07;;;33.30;;
5890;SDS011;2971;52.420;7.080;2023-05-07T03:27:47;38.13;;;34.23;;
5890;SDS011;2971;52.420;7.080;2023-05-07T03:30:13;38.80;;;34.73;;
5890;SDS011;2971;52.420;7.080;2023-05-07T03:32:38;38.00;;;34.20;;
5890;SDS011;2971;52.420;7.080;2023-05-07T03:35:04;38.43;;;34.40;;
5890;SDS011;2971;52.420;7.080;2023-05-07T03:37:30;39.40;;;35.33;;
5890;SDS011;2971;52.420;7.080;2023-05-07T03:39:55;40.30;;;36.20;;
5890;SDS011;2971;52.420;7.080;2023-05-07T03:42:21;40.87;;;36.77;;
5890;SDS011;2971;52.420;7.080;2023-05-07T03:44:46;40.90;;;36.67;;
5890;SDS011;2971;52.420;7.080;2023-05-07T03:47:12;39.73;;;35.73;;
5890;SDS011;2971;52.420;7.080;2023-05-07T03:49:38;41.53;;;37.43;;
5890;SDS011;2971;52.420;7.080;2023-05-07T03:52:04;39.37;;;35.57;;
5890;SDS011;2971;52.420;7.080;2023-05-07T03:54:30;43.50;;;39.17;;
5890;SDS011;2971;52.420;7.080;2023-05-07T03:56:55;42.60;;;38.20;;
5890;SDS011;2971;52.420;7.080;2023-05-07T03:59:21;42.23;;;37.70;;
5890;SDS011;2971;52.420;7.080;2023-05-07T04:01:47;43.60;;;39.07;;
5890;SDS011;2971;52.420;7.080;2023-05-07T04:04:13;45.77;;;41.17;;
5890;SDS011;2971;52.420;7.080;2023-05-07T04:06:39;43.97;;;39.53;;
5890;SDS011;2971;52.420;7.080;2023-05-07T04:09:04;43.80;;;39.40;;
5890;SDS011;2971;52.420;7.080;2023-05-07T04:11:30;45.63;;;41.00;;
5890;SDS011;2971;52.420;7.080;2023-05-07T04:13:56;45.83;;;41.20;;
5890;SDS011;2971;52.420;7.080;2023-05-07T04:16:21;44.53;;;40.10;;
5890;SDS011;2971;52.420;7.080;2023-05-07T04:18:46;45.50;;;40.93;;
5890;SDS011;2971;52.420;7.080;2023-05-07T04:21:16;45.23;;;40.63;;
5890;SDS011;2971;52.420;7.080;2023-05-07T04:23:42;45.10;;;40.60;;
5890;SDS011;2971;52.420;7.080;2023-05-07T04:26:07;44.97;;;40.33;;
5890;SDS011;2971;52.420;7.080;2023-05-07T04:28:34;44.80;;;40.30;;
5890;SDS011;2971;52.420;7.080;2023-05-07T04:30:59;45.97;;;41.33;;
5890;SDS011;2971;52.420;7.080;2023-05-07T04:33:25;46.43;;;41.43;;
5890;SDS011;2971;52.420;7.080;2023-05-07T04:35:51;45.00;;;40.40;;
5890;SDS011;2971;52.420;7.080;2023-05-07T04:38:16;45.93;;;41.20;;
5890;SDS011;2971;52.420;7.080;2023-05-07T04:40:43;44.07;;;39.57;;
5890;SDS011;2971;52.420;7.080;2023-05-07T04:43:09;43.53;;;38.97;;
5890;SDS011;2971;52.420;7.080;2023-05-07T04:45:35;46.20;;;41.60;;
5890;SDS011;2971;52.420;7.080;2023-05-07T04:48:01;46.60;;;42.00;;
5890;SDS011;2971;52.420;7.080;2023-05-07T04:50:26;44.07;;;39.37;;
5890;SDS011;2971;52.420;7.080;2023-05-07T04:52:52;46.10;;;41.40;;
5890;SDS011;2971;52.420;7.080;2023-05-07T04:55:17;47.10;;;42.03;;
5890;SDS011;2971;52.420;7.080;2023-05-07T04:57:43;45.83;;;41.20;;
5890;SDS011;2971;52.420;7.080;2023-05-07T05:00:08;44.90;;;40.27;;
5890;SDS011;2971;52.420;7.080;2023-05-07T05:02:35;45.37;;;40.77;;
5890;SDS011;2971;52.420;7.080;2023-05-07T05:05:00;44.00;;;39.70;;
5890;SDS011;2971;52.420;7.080;2023-05-07T05:07:29;43.50;;;38.80;;
5890;SDS011;2971;52.420;7.080;2023-05-07T05:09:54;44.70;;;39.90;;
5890;SDS011;2971;52.420;7.080;2023-05-07T05:12:20;43.80;;;39.17;;
5890;SDS011;2971;52.420;7.080;2023-05-07T05:14:46;43.27;;;38.60;;
5890;SDS011;2971;52.420;7.080;2023-05-07T05:17:12;42.93;;;38.53;;
5890;SDS011;2971;52.420;7.080;2023-05-07T05:19:37;41.93;;;37.73;;
5890;SDS011;2971;52.420;7.080;2023-05-07T05:22:03;44.10;;;39.60;;
5890;SDS011;2971;52.420;7.080;2023-05-07T05:24:29;43.77;;;39.07;;
5890;SDS011;2971;52.420;7.080;2023-05-07T05:26:55;43.00;;;38.47;;
5890;SDS011;2971;52.420;7.080;2023-05-07T05:29:21;43.40;;;38.70;;
5890;SDS011;2971;52.420;7.080;2023-05-07T05:31:46;43.70;;;39.00;;
5890;SDS011;2971;52.420;7.080;2023-05-07T05:34:12;43.17;;;38.53;;
5890;SDS011;2971;52.420;7.080;2023-05-07T05:36:37;43.27;;;38.87;;
5890;SDS011;2971;52.420;7.080;2023-05-07T05:39:02;42.17;;;37.77;;
5890;SDS011;2971;52.420;7.080;2023-05-07T05:41:29;44.27;;;39.67;;
5890;SDS011;2971;52.420;7.080;2023-05-07T05:43:54;43.73;;;39.13;;
5890;SDS011;2971;52.420;7.080;2023-05-07T05:46:20;45.07;;;39.23;;
5890;SDS011;2971;52.420;7.080;2023-05-07T05:48:45;43.20;;;38.57;;
5890;SDS011;2971;52.420;7.080;2023-05-07T05:51:11;42.77;;;38.23;;
5890;SDS011;2971;52.420;7.080;2023-05-07T05:53:36;43.90;;;39.20;;
5890;SDS011;2971;52.420;7.080;2023-05-07T05:56:02;44.17;;;38.40;;
5890;SDS011;2971;52.420;7.080;2023-05-07T05:58:27;40.27;;;36.10;;
5890;SDS011;2971;52.420;7.080;2023-05-07T06:00:53;42.27;;;37.77;;
5890;SDS011;2971;52.420;7.080;2023-05-07T06:03:18;43.03;;;38.53;;
5890;SDS011;2971;52.420;7.080;2023-05-07T06:05:43;43.90;;;39.37;;
5890;SDS011;2971;52.420;7.080;2023-05-07T06:08:09;42.33;;;37.87;;
5890;SDS011;2971;52.420;7.080;2023-05-07T06:10:35;44.17;;;38.67;;
5890;SDS011;2971;52.420;7.080;2023-05-07T06:13:01;42.67;;;38.07;;
5890;SDS011;2971;52.420;7.080;2023-05-07T06:15:27;42.03;;;37.70;;
5890;SDS011;2971;52.420;7.080;2023-05-07T06:17:52;41.60;;;37.20;;
5890;SDS011;2971;52.420;7.080;2023-05-07T06:20:17;42.53;;;38.10;;
5890;SDS011;2971;52.420;7.080;2023-05-07T06:22:43;41.10;;;36.63;;
5890;SDS011;2971;52.420;7.080;2023-05-07T06:25:08;42.00;;;37.43;;
5890;SDS011;2971;52.420;7.080;2023-05-07T06:27:34;42.43;;;38.03;;
5890;SDS011;2971;52.420;7.080;2023-05-07T06:30:00;40.20;;;35.90;;
5890;SDS011;2971;52.420;7.080;2023-05-07T06:32:25;39.13;;;35.07;;
5890;SDS011;2971;52.420;7.080;2023-05-07T06:34:50;39.83;;;35.93;;
5890;SDS011;2971;52.420;7.080;2023-05-07T06:37:16;39.33;;;35.23;;
5890;SDS011;2971;52.420;7.080;2023-05-07T06:39:41;40.30;;;36.17;;
5890;SDS011;2971;52.420;7.080;2023-05-07T06:42:07;39.57;;;35.47;;
5890;SDS011;2971;52.420;7.080;2023-05-07T06:44:32;40.60;;;35.23;;
5890;SDS011;2971;52.420;7.080;2023-05-07T06:46:57;38.17;;;34.27;;
5890;SDS011;2971;52.420;7.080;2023-05-07T06:49:23;39.03;;;34.90;;
5890;SDS011;2971;52.420;7.080;2023-05-07T06:51:48;37.60;;;33.70;;
5890;SDS011;2971;52.420;7.080;2023-05-07T06:54:14;39.40;;;35.30;;
5890;SDS011;2971;52.420;7.080;2023-05-07T06:56:39;38.90;;;34.90;;
5890;SDS011;2971;52.420;7.080;2023-05-07T06:59:06;38.00;;;34.10;;
5890;SDS011;2971;52.420;7.080;2023-05-07T07:01:31;38.70;;;34.63;;
5890;SDS011;2971;52.420;7.080;2023-05-07T07:03:57;37.50;;;33.57;;
5890;SDS011;2971;52.420;7.080;2023-05-07T07:06:22;36.87;;;33.03;;
5890;SDS011;2971;52.420;7.080;2023-05-07T07:08:48;37.07;;;33.23;;
5890;SDS011;2971;52.420;7.080;2023-05-07T07:11:13;36.77;;;32.97;;
5890;SDS011;2971;52.420;7.080;2023-05-07T07:13:38;36.47;;;32.67;;
5890;SDS011;2971;52.420;7.080;2023-05-07T07:16:05;37.07;;;33.27;;
5890;SDS011;2971;52.420;7.080;2023-05-07T07:18:31;36.33;;;32.53;;
5890;SDS011;2971;52.420;7.080;2023-05-07T07:20:56;36.67;;;32.83;;
5890;SDS011;2971;52.420;7.080;2023-05-07T07:23:21;34.83;;;31.43;;
5890;SDS011;2971;52.420;7.080;2023-05-07T07:25:47;36.10;;;32.33;;
5890;SDS011;2971;52.420;7.080;2023-05-07T07:28:12;34.67;;;31.17;;
5890;SDS011;2971;52.420;7.080;2023-05-07T07:30:38;36.00;;;32.10;;
5890;SDS011;2971;52.420;7.080;2023-05-07T07:33:04;34.87;;;31.30;;
5890;SDS011;2971;52.420;7.080;2023-05-07T07:35:30;35.23;;;31.50;;
5890;SDS011;2971;52.420;7.080;2023-05-07T07:37:56;34.70;;;31.00;;
5890;SDS011;2971;52.420;7.080;2023-05-07T07:40:21;35.17;;;31.67;;
5890;SDS011;2971;52.420;7.080;2023-05-07T07:42:47;33.60;;;30.33;;
5890;SDS011;2971;52.420;7.080;2023-05-07T07:45:12;34.20;;;30.50;;
5890;SDS011;2971;52.420;7.080;2023-05-07T07:47:39;33.87;;;30.43;;
5890;SDS011;2971;52.420;7.080;2023-05-07T07:50:05;34.30;;;30.70;;
5890;SDS011;2971;52.420;7.080;2023-05-07T07:52:32;34.10;;;30.77;;
5890;SDS011;2971;52.420;7.080;2023-05-07T07:54:57;32.43;;;29.20;;
5890;SDS011;2971;52.420;7.080;2023-05-07T07:57:23;31.87;;;28.77;;
5890;SDS011;2971;52.420;7.080;2023-05-07T07:59:48;32.37;;;28.97;;
5890;SDS011;2971;52.420;7.080;2023-05-07T08:02:15;33.00;;;29.37;;
5890;SDS011;2971;52.420;7.080;2023-05-07T08:04:40;31.83;;;28.60;;
5890;SDS011;2971;52.420;7.080;2023-05-07T08:07:08;32.13;;;28.93;;
5890;SDS011;2971;52.420;7.080;2023-05-07T08:09:34;31.90;;;28.57;;
5890;SDS011;2971;52.420;7.080;2023-05-07T08:11:59;30.43;;;27.03;;
5890;SDS011;2971;52.420;7.080;2023-05-07T08:14:26;32.60;;;29.10;;
5890;SDS011;2971;52.420;7.080;2023-05-07T08:16:53;31.70;;;28.30;;
5890;SDS011;2971;52.420;7.080;2023-05-07T08:19:19;29.93;;;26.43;;
5890;SDS011;2971;52.420;7.080;2023-05-07T08:21:45;29.60;;;26.60;;
5890;SDS011;2971;52.420;7.080;2023-05-07T08:24:12;29.67;;;24.80;;
5890;SDS011;2971;52.420;7.080;2023-05-07T08:26:38;27.50;;;22.80;;
5890;SDS011;2971;52.420;7.080;2023-05-07T08:29:04;29.37;;;23.10;;
5890;SDS011;2971;52.420;7.080;2023-05-07T08:31:30;29.37;;;23.67;;
5890;SDS011;2971;52.420;7.080;2023-05-07T08:33:56;30.67;;;23.43;;
5890;SDS011;2971;52.420;7.080;2023-05-07T08:36:22;30.43;;;24.17;;
5890;SDS011;2971;52.420;7.080;2023-05-07T08:38:47;31.73;;;23.77;;
5890;SDS011;2971;52.420;7.080;2023-05-07T08:41:13;27.83;;;23.47;;
5890;SDS011;2971;52.420;7.080;2023-05-07T08:43:39;29.80;;;23.80;;
5890;SDS011;2971;52.420;7.080;2023-05-07T08:46:06;29.47;;;23.73;;
5890;SDS011;2971;52.420;7.080;2023-05-07T08:48:34;30.23;;;24.10;;
5890;SDS011;2971;52.420;7.080;2023-05-07T08:51:00;29.10;;;23.00;;
5890;SDS011;2971;52.420;7.080;2023-05-07T08:53:25;27.93;;;23.97;;
5890;SDS011;2971;52.420;7.080;2023-05-07T08:55:51;28.07;;;23.07;;
5890;SDS011;2971;52.420;7.080;2023-05-07T08:58:17;27.57;;;23.47;;
5890;SDS011;2971;52.420;7.080;2023-05-07T09:00:43;28.63;;;22.97;;
5890;SDS011;2971;52.420;7.080;2023-05-07T09:03:08;27.30;;;22.43;;
5890;SDS011;2971;52.420;7.080;2023-05-07T09:05:38;29.53;;;23.40;;
5890;SDS011;2971;52.420;7.080;2023-05-07T09:08:03;30.03;;;23.43;;
5890;SDS011;2971;52.420;7.080;2023-05-07T09:10:32;27.93;;;23.10;;
5890;SDS011;2971;52.420;7.080;2023-05-07T09:12:58;30.43;;;23.77;;
5890;SDS011;2971;52.420;7.080;2023-05-07T09:15:23;28.27;;;23.83;;
5890;SDS011;2971;52.420;7.080;2023-05-07T09:17:50;28.20;;;22.90;;
5890;SDS011;2971;52.420;7.080;2023-05-07T09:20:15;28.27;;;25.03;;
5890;SDS011;2971;52.420;7.080;2023-05-07T09:22:41;28.83;;;23.07;;
5890;SDS011;2971;52.420;7.080;2023-05-07T09:25:07;27.17;;;21.67;;
5890;SDS011;2971;52.420;7.080;2023-05-07T09:27:34;26.57;;;22.27;;
5890;SDS011;2971;52.420;7.080;2023-05-07T09:30:07;25.60;;;21.03;;
5890;SDS011;2971;52.420;7.080;2023-05-07T09:32:36;28.47;;;22.53;;
5890;SDS011;2971;52.420;7.080;2023-05-07T09:35:05;26.63;;;21.90;;
5890;SDS011;2971;52.420;7.080;2023-05-07T09:37:31;27.43;;;21.53;;
5890;SDS011;2971;52.420;7.080;2023-05-07T09:39:57;28.63;;;22.17;;
5890;SDS011;2971;52.420;7.080;2023-05-07T09:42:23;26.97;;;21.83;;
5890;SDS011;2971;52.420;7.080;2023-05-07T09:44:50;26.47;;;21.33;;
5890;SDS011;2971;52.420;7.080;2023-05-07T09:47:18;25.47;;;21.60;;
5890;SDS011;2971;52.420;7.080;2023-05-07T09:49:45;30.40;;;22.33;;
5890;SDS011;2971;52.420;7.080;2023-05-07T09:52:13;26.40;;;21.60;;
5890;SDS011;2971;52.420;7.080;2023-05-07T09:54:39;25.50;;;20.83;;
5890;SDS011;2971;52.420;7.080;2023-05-07T09:57:05;26.43;;;21.83;;
5890;SDS011;2971;52.420;7.080;2023-05-07T09:59:32;24.87;;;21.13;;
5890;SDS011;2971;52.420;7.080;2023-05-07T10:01:58;24.83;;;19.70;;
5890;SDS011;2971;52.420;7.080;2023-05-07T10:04:25;26.43;;;20.47;;
5890;SDS011;2971;52.420;7.080;2023-05-07T10:06:51;23.30;;;19.90;;
5890;SDS011;2971;52.420;7.080;2023-05-07T10:09:17;24.30;;;20.57;;
5890;SDS011;2971;52.420;7.080;2023-05-07T10:11:43;26.43;;;20.70;;
5890;SDS011;2971;52.420;7.080;2023-05-07T10:14:08;23.67;;;20.93;;
5890;SDS011;2971;52.420;7.080;2023-05-07T10:16:35;22.97;;;20.27;;
5890;SDS011;2971;52.420;7.080;2023-05-07T10:19:04;25.17;;;18.93;;
5890;SDS011;2971;52.420;7.080;2023-05-07T10:21:30;23.87;;;20.23;;
5890;SDS011;2971;52.420;7.080;2023-05-07T10:24:02;22.53;;;19.10;;
5890;SDS011;2971;52.420;7.080;2023-05-07T10:26:31;25.10;;;20.20;;
5890;SDS011;2971;52.420;7.080;2023-05-07T10:29:05;21.33;;;19.03;;
5890;SDS011;2971;52.420;7.080;2023-05-07T10:34:44;22.00;;;17.53;;
5890;SDS011;2971;52.420;7.080;2023-05-07T10:37:10;21.87;;;19.20;;
5890;SDS011;2971;52.420;7.080;2023-05-07T10:39:36;24.87;;;19.33;;
5890;SDS011;2971;52.420;7.080;2023-05-07T10:42:08;22.93;;;20.40;;
5890;SDS011;2971;52.420;7.080;2023-05-07T10:44:34;23.50;;;19.93;;
5890;SDS011;2971;52.420;7.080;2023-05-07T10:52:23;24.53;;;19.57;;
5890;SDS011;2971;52.420;7.080;2023-05-07T10:57:46;23.40;;;19.03;;
5890;SDS011;2971;52.420;7.080;2023-05-07T11:05:27;23.77;;;18.70;;
5890;SDS011;2971;52.420;7.080;2023-05-07T11:07:57;22.03;;;18.27;;
5890;SDS011;2971;52.420;7.080;2023-05-07T11:10:23;21.10;;;18.37;;
5890;SDS011;2971;52.420;7.080;2023-05-07T11:13:14;20.67;;;17.27;;
5890;SDS011;2971;52.420;7.080;2023-05-07T11:15:41;19.77;;;16.80;;
5890;SDS011;2971;52.420;7.080;2023-05-07T11:18:09;23.20;;;17.57;;
5890;SDS011;2971;52.420;7.080;2023-05-07T11:20:45;21.77;;;18.47;;
5890;SDS011;2971;52.420;7.080;2023-05-07T11:24:00;20.87;;;17.77;;
5890;SDS011;2971;52.420;7.080;2023-05-07T11:26:03;19.17;;;16.67;;
5890;SDS011;2971;52.420;7.080;2023-05-07T11:28:36;20.33;;;17.33;;
5890;SDS011;2971;52.420;7.080;2023-05-07T11:31:03;20.93;;;17.63;;
5890;SDS011;2971;52.420;7.080;2023-05-07T11:33:32;19.27;;;17.27;;
5890;SDS011;2971;52.420;7.080;2023-05-07T11:35:58;21.27;;;17.20;;
5890;SDS011;2971;52.420;7.080;2023-05-07T11:38:24;19.33;;;17.33;;
5890;SDS011;2971;52.420;7.080;2023-05-07T11:40:50;18.50;;;16.27;;
5890;SDS011;2971;52.420;7.080;2023-05-07T11:43:25;17.77;;;15.87;;
5890;SDS011;2971;52.420;7.080;2023-05-07T11:45:51;19.07;;;16.97;;
5890;SDS011;2971;52.420;7.080;2023-05-07T11:48:16;20.63;;;17.40;;
5890;SDS011;2971;52.420;7.080;2023-05-07T11:50:52;17.07;;;15.37;;
5890;SDS011;2971;52.420;7.080;2023-05-07T11:53:26;18.27;;;16.10;;
5890;SDS011;2971;52.420;7.080;2023-05-07T11:55:52;18.20;;;16.30;;
5890;SDS011;2971;52.420;7.080;2023-05-07T11:58:20;17.70;;;15.90;;
5890;SDS011;2971;52.420;7.080;2023-05-07T12:00:50;18.07;;;16.20;;
5890;SDS011;2971;52.420;7.080;2023-05-07T12:03:16;17.97;;;16.00;;
5890;SDS011;2971;52.420;7.080;2023-05-07T12:05:43;18.40;;;16.50;;
5890;SDS011;2971;52.420;7.080;2023-05-07T12:08:15;19.23;;;17.03;;
5890;SDS011;2971;52.420;7.080;2023-05-07T12:10:41;18.37;;;16.13;;
5890;SDS011;2971;52.420;7.080;2023-05-07T12:13:14;20.13;;;17.00;;
5890;SDS011;2971;52.420;7.080;2023-05-07T12:15:43;18.40;;;16.37;;
5890;SDS011;2971;52.420;7.080;2023-05-07T12:18:09;19.47;;;17.67;;
5890;SDS011;2971;52.420;7.080;2023-05-07T12:20:35;18.83;;;16.77;;
5890;SDS011;2971;52.420;7.080;2023-05-07T12:23:01;17.40;;;15.60;;
5890;SDS011;2971;52.420;7.080;2023-05-07T12:25:30;18.67;;;16.00;;
5890;SDS011;2971;52.420;7.080;2023-05-07T12:27:56;16.43;;;14.73;;
5890;SDS011;2971;52.420;7.080;2023-05-07T12:30:23;16.83;;;15.03;;
5890;SDS011;2971;52.420;7.080;2023-05-07T12:32:52;16.80;;;15.10;;
5890;SDS011;2971;52.420;7.080;2023-05-07T12:35:25;16.90;;;15.03;;
5890;SDS011;2971;52.420;7.080;2023-05-07T12:37:57;16.10;;;14.40;;
5890;SDS011;2971;52.420;7.080;2023-05-07T12:40:25;16.83;;;15.07;;
5890;SDS011;2971;52.420;7.080;2023-05-07T12:43:01;16.35;;;14.68;;
5890;SDS011;2971;52.420;7.080;2023-05-07T12:45:26;15.68;;;14.10;;
5890;SDS011;2971;52.420;7.080;2023-05-07T12:47:52;16.63;;;14.82;;
5890;SDS011;2971;52.420;7.080;2023-05-07T12:50:17;14.23;;;12.82;;
5890;SDS011;2971;52.420;7.080;2023-05-07T12:52:47;16.08;;;14.50;;
5890;SDS011;2971;52.420;7.080;2023-05-07T12:55:13;15.02;;;13.35;;
5890;SDS011;2971;52.420;7.080;2023-05-07T12:57:41;14.77;;;13.30;;
5890;SDS011;2971;52.420;7.080;2023-05-07T13:00:08;14.85;;;13.45;;
5890;SDS011;2971;52.420;7.080;2023-05-07T13:02:37;15.10;;;13.65;;
5890;SDS011;2971;52.420;7.080;2023-05-07T13:05:03;13.70;;;12.30;;
5890;SDS011;2971;52.420;7.080;2023-05-07T13:07:29;14.95;;;13.65;;
5890;SDS011;2971;52.420;7.080;2023-05-07T13:09:55;14.70;;;13.25;;
5890;SDS011;2971;52.420;7.080;2023-05-07T13:12:20;14.00;;;12.70;;
5890;SDS011;2971;52.420;7.080;2023-05-07T13:14:46;14.93;;;13.43;;
5890;SDS011;2971;52.420;7.080;2023-05-07T13:17:11;15.43;;;13.90;;
5890;SDS011;2971;52.420;7.080;2023-05-07T13:19:37;16.38;;;13.32;;
5890;SDS011;2971;52.420;7.080;2023-05-07T13:22:03;14.23;;;12.90;;
5890;SDS011;2971;52.420;7.080;2023-05-07T13:24:29;15.50;;;14.00;;
5890;SDS011;2971;52.420;7.080;2023-05-07T13:26:54;15.20;;;13.70;;
5890;SDS011;2971;52.420;7.080;2023-05-07T13:29:20;14.85;;;13.45;;
5890;SDS011;2971;52.420;7.080;2023-05-07T13:31:50;13.70;;;12.30;;
5890;SDS011;2971;52.420;7.080;2023-05-07T13:34:16;13.68;;;12.32;;
5890;SDS011;2971;52.420;7.080;2023-05-07T13:36:41;12.98;;;11.75;;
5890;SDS011;2971;52.420;7.080;2023-05-07T13:39:07;12.98;;;11.70;;
5890;SDS011;2971;52.420;7.080;2023-05-07T13:41:32;11.98;;;10.88;;
5890;SDS011;2971;52.420;7.080;2023-05-07T13:43:58;13.52;;;12.15;;
5890;SDS011;2971;52.420;7.080;2023-05-07T13:46:23;12.65;;;11.43;;
5890;SDS011;2971;52.420;7.080;2023-05-07T13:48:49;13.30;;;12.00;;
5890;SDS011;2971;52.420;7.080;2023-05-07T13:51:16;13.02;;;11.35;;
5890;SDS011;2971;52.420;7.080;2023-05-07T13:53:42;12.95;;;11.65;;
5890;SDS011;2971;52.420;7.080;2023-05-07T13:56:07;12.70;;;11.50;;
5890;SDS011;2971;52.420;7.080;2023-05-07T13:58:33;12.23;;;11.07;;
5890;SDS011;2971;52.420;7.080;2023-05-07T14:00:58;12.93;;;11.57;;
5890;SDS011;2971;52.420;7.080;2023-05-07T14:03:24;12.95;;;11.73;;
5890;SDS011;2971;52.420;7.080;2023-05-07T14:05:50;10.93;;;9.82;;
5890;SDS011;2971;52.420;7.080;2023-05-07T14:08:15;12.15;;;10.27;;
5890;SDS011;2971;52.420;7.080;2023-05-07T14:10:43;12.02;;;10.82;;
5890;SDS011;2971;52.420;7.080;2023-05-07T14:13:09;11.57;;;10.45;;
5890;SDS011;2971;52.420;7.080;2023-05-07T14:15:35;12.70;;;11.50;;
5890;SDS011;2971;52.420;7.080;2023-05-07T14:18:01;11.43;;;10.35;;
5890;SDS011;2971;52.420;7.080;2023-05-07T14:20:27;10.55;;;9.55;;
5890;SDS011;2971;52.420;7.080;2023-05-07T14:22:53;12.48;;;11.18;;
5890;SDS011;2971;52.420;7.080;2023-05-07T14:25:18;12.20;;;11.00;;
5890;SDS011;2971;52.420;7.080;2023-05-07T14:27:44;11.82;;;10.57;;
5890;SDS011;2971;52.420;7.080;2023-05-07T14:30:10;12.90;;;11.70;;
5890;SDS011;2971;52.420;7.080;2023-05-07T14:32:35;11.38;;;10.38;;
5890;SDS011;2971;52.420;7.080;2023-05-07T14:35:01;12.00;;;10.80;;
5890;SDS011;2971;52.420;7.080;2023-05-07T14:37:27;11.50;;;10.40;;
5890;SDS011;2971;52.420;7.080;2023-05-07T14:39:54;11.40;;;10.27;;
5890;SDS011;2971;52.420;7.080;2023-05-07T14:42:20;12.98;;;11.57;;
5890;SDS011;2971;52.420;7.080;2023-05-07T14:44:45;11.25;;;10.05;;
5890;SDS011;2971;52.420;7.080;2023-05-07T14:47:12;11.10;;;10.02;;
5890;SDS011;2971;52.420;7.080;2023-05-07T14:49:38;11.05;;;10.05;;
5890;SDS011;2971;52.420;7.080;2023-05-07T14:52:04;10.50;;;9.43;;
5890;SDS011;2971;52.420;7.080;2023-05-07T14:54:33;12.30;;;11.07;;
5890;SDS011;2971;52.420;7.080;2023-05-07T14:56:59;11.43;;;10.33;;
5890;SDS011;2971;52.420;7.080;2023-05-07T14:59:25;10.90;;;9.83;;